Time;durP1;ratioP1;P1;durP2;ratioP2;P2;SDS_P1;SDS_P2;PMS_P1;PMS_P2;Temp;Humidity;BMP_temperature;BMP_pressure;BME280_temperature;BME280_humidity;BME280_pressure;Samples;Min_cycle;Max_cycle;Signal;HPM_P1;HPM_P2
2023/03/22 00:01:29;;;;;;;;;;;11.20;99.90;;;;;;5026673;28;19921;-63
2023/03/22 00:03:55;;;;;;;;;;;11.30;99.90;;;;;;5029263;28;19919;-63
2023/03/22 00:06:20;;;;;;;;;;;11.30;99.90;;;;;;5027820;28;20298;-63
2023/03/22 00:08:50;;;;;;;;;;;11.40;99.90;;;;;;5028452;28;19929;-61
2023/03/22 00:11:16;;;;;;;;;;;11.40;99.90;;;;;;5026736;28;19948;-61
2023/03/22 00:13:42;;;;;;;;;;;11.40;99.90;;;;;;5023942;28;20029;-61
2023/03/22 00:16:08;;;;;;;;;;;11.40;99.90;;;;;;5027271;28;19913;-63
2023/03/22 00:18:34;;;;;;;;;;;11.40;99.90;;;;;;5028897;28;19920;-63
2023/03/22 00:20:59;;;;;;;;;;;11.50;99.90;;;;;;5029883;28;19917;-63
2023/03/22 00:23:26;;;;;;;;;;;11.50;99.90;;;;;;5028970;28;19921;-63
2023/03/22 00:25:51;;;;;;;;;;;11.50;99.90;;;;;;5028093;28;19957;-61
2023/03/22 00:28:17;;;;;;;;;;;11.50;99.90;;;;;;5028602;28;19964;-62
2023/03/22 00:30:51;;;;;;;;;;;11.60;99.90;;;;;;5024573;28;20295;-63
2023/03/22 00:33:17;;;;;;;;;;;11.50;99.90;;;;;;5025024;28;20395;-63
2023/03/22 00:35:49;;;;;;;;;;;11.50;99.90;;;;;;5028947;28;19920;-63
2023/03/22 00:38:14;;;;;;;;;;;11.50;99.90;;;;;;5029022;28;20004;-63
2023/03/22 00:40:40;;;;;;;;;;;11.60;99.90;;;;;;5027245;28;20088;-63
2023/03/22 00:43:06;;;;;;;;;;;11.60;99.90;;;;;;5026388;28;19924;-63
2023/03/22 00:45:35;;;;;;;;;;;11.50;99.90;;;;;;5026885;28;19914;-63
2023/03/22 00:48:00;;;;;;;;;;;11.50;99.90;;;;;;5025078;28;20323;-63
2023/03/22 00:50:26;;;;;;;;;;;11.50;99.90;;;;;;5026234;28;19923;-64
2023/03/22 00:52:51;;;;;;;;;;;11.50;99.90;;;;;;5027652;28;20004;-63
2023/03/22 00:55:17;;;;;;;;;;;11.40;99.90;;;;;;5023716;28;20338;-63
2023/03/22 00:57:42;;;;;;;;;;;11.40;99.90;;;;;;5026915;28;19917;-63
2023/03/22 01:00:11;;;;;;;;;;;11.30;99.90;;;;;;5026937;28;19913;-63
2023/03/22 01:02:37;;;;;;;;;;;11.30;99.90;;;;;;5024509;28;19921;-63
2023/03/22 01:05:03;;;;;;;;;;;11.30;99.90;;;;;;5028208;28;20457;-63
2023/03/22 01:07:29;;;;;;;;;;;11.20;99.90;;;;;;5031528;28;19909;-63
2023/03/22 01:09:54;;;;;;;;;;;11.20;99.90;;;;;;5029107;28;19940;-63
2023/03/22 01:12:20;;;;;;;;;;;11.20;99.90;;;;;;5031874;28;19913;-63
2023/03/22 01:14:45;;;;;;;;;;;11.30;99.90;;;;;;5032201;28;19952;-63
2023/03/22 01:17:11;;;;;;;;;;;11.30;99.90;;;;;;5028939;28;19921;-62
2023/03/22 01:19:36;;;;;;;;;;;11.20;99.90;;;;;;5031527;28;20387;-63
2023/03/22 01:22:04;;;;;;;;;;;11.20;99.90;;;;;;5027955;28;19936;-63
2023/03/22 01:24:29;;;;;;;;;;;11.20;99.90;;;;;;5030845;28;19924;-62
2023/03/22 01:26:55;;;;;;;;;;;11.30;99.90;;;;;;5031413;28;19910;-63
2023/03/22 01:29:20;;;;;;;;;;;11.20;99.90;;;;;;5028206;28;19917;-62
2023/03/22 01:31:46;;;;;;;;;;;11.20;99.90;;;;;;5032274;28;19913;-63
2023/03/22 01:34:11;;;;;;;;;;;11.20;99.90;;;;;;5028111;28;20039;-63
2023/03/22 01:36:37;;;;;;;;;;;11.20;99.90;;;;;;5032063;28;19959;-63
2023/03/22 01:39:03;;;;;;;;;;;11.30;99.90;;;;;;5029824;28;19919;-63
2023/03/22 01:41:28;;;;;;;;;;;11.20;99.90;;;;;;5032100;28;19981;-63
2023/03/22 01:44:05;;;;;;;;;;;11.20;99.90;;;;;;5029069;28;19909;-62
2023/03/22 01:46:31;;;;;;;;;;;11.10;99.90;;;;;;5029574;28;20402;-63
2023/03/22 01:48:57;;;;;;;;;;;11.10;99.90;;;;;;5029439;28;19913;-63
2023/03/22 01:51:24;;;;;;;;;;;11.10;99.90;;;;;;5030652;28;20442;-63
2023/03/22 01:53:55;;;;;;;;;;;11.00;99.90;;;;;;5029845;28;19936;-63
2023/03/22 01:56:22;;;;;;;;;;;11.00;99.90;;;;;;5029494;28;19924;-62
2023/03/22 01:58:48;;;;;;;;;;;10.90;99.90;;;;;;5031892;28;19920;-63
2023/03/22 02:01:14;;;;;;;;;;;10.90;99.90;;;;;;5025992;28;19920;-63
2023/03/22 02:03:58;;;;;;;;;;;10.90;99.90;;;;;;5030038;28;19917;-63
2023/03/22 02:06:24;;;;;;;;;;;10.80;99.90;;;;;;5030410;28;19917;-62
2023/03/22 02:08:51;;;;;;;;;;;10.80;99.90;;;;;;5030966;28;20410;-63
2023/03/22 02:11:22;;;;;;;;;;;10.90;99.90;;;;;;5029559;28;19917;-63
2023/03/22 02:13:58;;;;;;;;;;;11.00;99.90;;;;;;5027506;28;21268;-63
2023/03/22 02:16:30;;;;;;;;;;;11.10;99.90;;;;;;5026973;28;19913;-63
2023/03/22 02:18:56;;;;;;;;;;;11.20;99.90;;;;;;5027553;28;20310;-63
2023/03/22 02:21:21;;;;;;;;;;;11.20;99.90;;;;;;5028212;28;19920;-63
2023/03/22 02:24:11;;;;;;;;;;;11.30;99.90;;;;;;5029332;28;20062;-62
2023/03/22 02:27:03;;;;;;;;;;;11.20;99.90;;;;;;5029228;28;20023;-63
2023/03/22 02:29:38;;;;;;;;;;;11.30;99.90;;;;;;5027560;28;20053;-62
2023/03/22 02:32:03;;;;;;;;;;;11.30;99.90;;;;;;5026287;28;19956;-63
2023/03/22 02:34:47;;;;;;;;;;;11.30;99.90;;;;;;5027420;28;19960;-63
2023/03/22 02:37:15;;;;;;;;;;;11.20;99.90;;;;;;5030798;28;20000;-63
2023/03/22 02:39:45;;;;;;;;;;;11.20;99.90;;;;;;5029695;28;19917;-64
2023/03/22 02:42:18;;;;;;;;;;;11.20;99.90;;;;;;5029670;28;20296;-63
2023/03/22 02:44:50;;;;;;;;;;;11.20;99.90;;;;;;5029885;28;20355;-63
2023/03/22 02:47:15;;;;;;;;;;;11.30;99.90;;;;;;5031048;28;19945;-63
2023/03/22 02:50:04;;;;;;;;;;;11.20;99.90;;;;;;5028340;28;19972;-63
2023/03/22 02:52:32;;;;;;;;;;;11.10;99.90;;;;;;5013600;28;19917;-63
2023/03/22 02:55:04;;;;;;;;;;;11.20;99.90;;;;;;5030529;28;19949;-63
2023/03/22 02:57:36;;;;;;;;;;;11.10;99.90;;;;;;5032846;28;19917;-63
2023/03/22 03:00:09;;;;;;;;;;;11.00;99.90;;;;;;5030125;28;20379;-63
2023/03/22 03:02:35;;;;;;;;;;;11.10;99.90;;;;;;5031013;28;19909;-63
2023/03/22 03:05:01;;;;;;;;;;;11.10;99.90;;;;;;5031417;28;19924;-63
2023/03/22 03:07:29;;;;;;;;;;;11.00;99.90;;;;;;5030499;28;19917;-63
2023/03/22 03:09:55;;;;;;;;;;;11.00;99.90;;;;;;5028406;28;20382;-63
2023/03/22 03:12:22;;;;;;;;;;;11.00;99.90;;;;;;5028606;28;19983;-63
2023/03/22 03:14:47;;;;;;;;;;;11.00;99.90;;;;;;5028312;28;19952;-64
2023/03/22 03:17:22;;;;;;;;;;;10.90;99.90;;;;;;5028625;28;19948;-63
2023/03/22 03:19:56;;;;;;;;;;;11.00;99.90;;;;;;5026424;28;20631;-64
2023/03/22 03:22:24;;;;;;;;;;;11.10;99.90;;;;;;5026333;28;19913;-64
2023/03/22 03:25:02;;;;;;;;;;;11.10;99.90;;;;;;5024998;28;19960;-64
2023/03/22 03:27:34;;;;;;;;;;;11.00;99.90;;;;;;5042299;28;19940;-64
2023/03/22 03:30:03;;;;;;;;;;;10.90;99.90;;;;;;5027195;28;20366;-63
2023/03/22 03:32:34;;;;;;;;;;;10.80;99.90;;;;;;5029914;28;20280;-62
2023/03/22 03:35:25;;;;;;;;;;;10.80;99.90;;;;;;5024833;28;20047;-63
2023/03/22 03:37:53;;;;;;;;;;;10.80;99.90;;;;;;5028623;28;19913;-63
2023/03/22 03:40:25;;;;;;;;;;;10.70;99.90;;;;;;5026676;28;19960;-62
2023/03/22 03:42:51;;;;;;;;;;;10.70;99.90;;;;;;5028118;28;19921;-63
2023/03/22 03:45:18;;;;;;;;;;;10.70;99.90;;;;;;5025026;28;19921;-63
2023/03/22 03:47:45;;;;;;;;;;;10.70;99.90;;;;;;5027928;28;20003;-63
2023/03/22 03:50:11;;;;;;;;;;;10.60;99.90;;;;;;5027094;28;20000;-63
2023/03/22 03:52:37;;;;;;;;;;;10.60;99.90;;;;;;5029784;28;20312;-63
2023/03/22 03:55:02;;;;;;;;;;;10.60;99.90;;;;;;5027254;28;20526;-63
2023/03/22 03:57:28;;;;;;;;;;;10.50;99.90;;;;;;5028087;28;19960;-63
2023/03/22 03:59:53;;;;;;;;;;;10.50;99.90;;;;;;5027682;28;19913;-64
2023/03/22 04:02:19;;;;;;;;;;;10.30;99.90;;;;;;5026972;28;19913;-64
2023/03/22 04:04:45;;;;;;;;;;;10.30;99.90;;;;;;5027484;28;19909;-63
2023/03/22 04:07:10;;;;;;;;;;;10.30;99.90;;;;;;5028321;28;19913;-63
2023/03/22 04:09:37;;;;;;;;;;;10.20;99.90;;;;;;5025866;28;19917;-64
2023/03/22 04:12:02;;;;;;;;;;;10.20;99.90;;;;;;5025851;28;19917;-64
2023/03/22 04:14:28;;;;;;;;;;;10.10;99.90;;;;;;5029888;28;19963;-64
2023/03/22 04:16:53;;;;;;;;;;;10.10;99.90;;;;;;5027058;28;19979;-64
2023/03/22 04:19:19;;;;;;;;;;;10.00;99.90;;;;;;5027413;28;19918;-63
2023/03/22 04:21:44;;;;;;;;;;;10.00;99.90;;;;;;5024750;28;20008;-63
2023/03/22 04:24:10;;;;;;;;;;;10.00;99.90;;;;;;5026343;28;19913;-64
2023/03/22 04:26:36;;;;;;;;;;;9.90;99.90;;;;;;5026425;28;19924;-63
2023/03/22 04:29:01;;;;;;;;;;;9.80;99.90;;;;;;5029614;28;19913;-64
2023/03/22 04:31:28;;;;;;;;;;;9.70;99.90;;;;;;5027118;28;19913;-63
2023/03/22 04:33:53;;;;;;;;;;;9.70;99.90;;;;;;5027358;28;19917;-64
2023/03/22 04:36:20;;;;;;;;;;;9.60;99.90;;;;;;5025363;28;19935;-63
2023/03/22 04:38:45;;;;;;;;;;;9.50;99.90;;;;;;5026051;28;20102;-63
2023/03/22 04:41:11;;;;;;;;;;;9.50;99.90;;;;;;5027165;28;19959;-64
2023/03/22 04:43:38;;;;;;;;;;;9.50;99.90;;;;;;5025924;28;20934;-64
2023/03/22 04:46:04;;;;;;;;;;;9.40;99.90;;;;;;5024561;28;19920;-63
2023/03/22 04:48:29;;;;;;;;;;;9.30;99.90;;;;;;5029217;28;19917;-64
2023/03/22 04:50:56;;;;;;;;;;;9.30;99.90;;;;;;5025315;28;19922;-63
2023/03/22 04:53:26;;;;;;;;;;;9.30;99.90;;;;;;5026905;28;19932;-63
2023/03/22 04:55:57;;;;;;;;;;;9.30;99.90;;;;;;5026439;28;20318;-64
2023/03/22 04:58:24;;;;;;;;;;;9.30;99.90;;;;;;5029130;28;19924;-64
2023/03/22 05:00:51;;;;;;;;;;;9.30;99.90;;;;;;5029382;28;19937;-63
2023/03/22 05:03:19;;;;;;;;;;;9.30;99.90;;;;;;5026436;28;19920;-64
2023/03/22 05:05:49;;;;;;;;;;;9.30;99.90;;;;;;5026322;28;19984;-65
2023/03/22 05:08:15;;;;;;;;;;;9.40;99.90;;;;;;5027668;28;20435;-63
2023/03/22 05:10:40;;;;;;;;;;;9.40;99.90;;;;;;5026290;28;20016;-63
2023/03/22 05:13:05;;;;;;;;;;;9.40;99.90;;;;;;5028234;28;19928;-63
2023/03/22 05:15:31;;;;;;;;;;;9.40;99.90;;;;;;5026016;28;19918;-63
2023/03/22 05:17:57;;;;;;;;;;;9.40;99.90;;;;;;5029064;28;19956;-63
2023/03/22 05:20:23;;;;;;;;;;;9.30;99.90;;;;;;5028810;28;19917;-62
2023/03/22 05:22:49;;;;;;;;;;;9.20;99.90;;;;;;5023465;28;20268;-63
2023/03/22 05:25:14;;;;;;;;;;;9.20;99.90;;;;;;5029295;28;19975;-63
2023/03/22 05:27:40;;;;;;;;;;;9.20;99.90;;;;;;5028398;28;19971;-63
2023/03/22 05:30:06;;;;;;;;;;;9.10;99.90;;;;;;5029359;28;19921;-63
2023/03/22 05:32:32;;;;;;;;;;;9.00;99.90;;;;;;5027347;28;19913;-62
2023/03/22 05:35:02;;;;;;;;;;;9.00;99.90;;;;;;5028826;28;19967;-63
2023/03/22 05:37:28;;;;;;;;;;;9.00;99.90;;;;;;5033424;28;19917;-63
2023/03/22 05:39:54;;;;;;;;;;;8.90;99.90;;;;;;5030029;28;19931;-62
2023/03/22 05:42:19;;;;;;;;;;;9.00;99.90;;;;;;5024231;28;20434;-63
2023/03/22 05:44:45;;;;;;;;;;;8.90;99.90;;;;;;5026977;28;19920;-63
2023/03/22 05:47:11;;;;;;;;;;;9.00;99.90;;;;;;5027864;28;19983;-63
2023/03/22 05:49:36;;;;;;;;;;;9.00;99.90;;;;;;5029523;28;19975;-63
2023/03/22 05:52:04;;;;;;;;;;;9.00;99.90;;;;;;5026926;28;19917;-63
2023/03/22 05:54:30;;;;;;;;;;;9.10;99.90;;;;;;5027117;28;20338;-64
2023/03/22 05:56:55;;;;;;;;;;;9.20;99.90;;;;;;5031475;28;19921;-63
2023/03/22 05:59:21;;;;;;;;;;;9.30;99.90;;;;;;5030769;28;19913;-63
2023/03/22 06:01:46;;;;;;;;;;;9.40;99.90;;;;;;5026700;28;20383;-63
2023/03/22 06:04:12;;;;;;;;;;;9.60;99.90;;;;;;5026358;28;19913;-62
2023/03/22 06:06:38;;;;;;;;;;;9.70;99.90;;;;;;5029890;28;19920;-64
2023/03/22 06:09:03;;;;;;;;;;;9.90;99.90;;;;;;5027739;28;19971;-62
2023/03/22 06:11:32;;;;;;;;;;;10.00;99.90;;;;;;5028384;28;19999;-63
2023/03/22 06:13:58;;;;;;;;;;;10.10;99.90;;;;;;5026295;28;20310;-61
2023/03/22 06:16:23;;;;;;;;;;;10.20;99.90;;;;;;5027648;28;19921;-63
2023/03/22 06:18:49;;;;;;;;;;;10.20;99.90;;;;;;5024430;28;19920;-63
2023/03/22 06:21:14;;;;;;;;;;;10.40;99.90;;;;;;5023656;28;20409;-62
2023/03/22 06:23:42;;;;;;;;;;;10.40;99.90;;;;;;5025171;28;19933;-63
2023/03/22 06:26:10;;;;;;;;;;;10.50;99.90;;;;;;5030753;28;19920;-62
2023/03/22 06:28:35;;;;;;;;;;;10.60;99.90;;;;;;5028832;28;19970;-63
2023/03/22 06:31:04;;;;;;;;;;;10.70;99.90;;;;;;5028978;28;20374;-63
2023/03/22 06:33:30;;;;;;;;;;;10.80;99.90;;;;;;5032294;28;20379;-64
2023/03/22 06:35:57;;;;;;;;;;;10.90;99.90;;;;;;5031741;28;19924;-63
2023/03/22 06:38:23;;;;;;;;;;;10.90;99.90;;;;;;5028214;28;20358;-63
2023/03/22 06:40:48;;;;;;;;;;;11.00;99.90;;;;;;5027905;28;19917;-62
2023/03/22 06:43:14;;;;;;;;;;;11.00;99.90;;;;;;5030557;28;20798;-62
2023/03/22 06:45:39;;;;;;;;;;;11.10;99.90;;;;;;5030746;28;20387;-63
2023/03/22 06:48:05;;;;;;;;;;;11.10;99.90;;;;;;5029889;28;19988;-63
2023/03/22 06:50:31;;;;;;;;;;;11.10;99.90;;;;;;5027887;28;19920;-62
2023/03/22 06:52:56;;;;;;;;;;;11.20;99.90;;;;;;5031274;28;20004;-63
2023/03/22 06:55:23;;;;;;;;;;;11.20;99.90;;;;;;5030880;28;19920;-63
2023/03/22 06:57:49;;;;;;;;;;;11.20;99.90;;;;;;5029934;28;19913;-63
2023/03/22 07:00:14;;;;;;;;;;;11.20;99.90;;;;;;5029544;28;19971;-63
2023/03/22 07:02:40;;;;;;;;;;;11.20;99.90;;;;;;5026937;28;20406;-63
2023/03/22 07:05:05;;;;;;;;;;;11.20;99.90;;;;;;5030856;28;19913;-63
2023/03/22 07:07:31;;;;;;;;;;;11.30;99.90;;;;;;5025258;28;19914;-62
2023/03/22 07:09:57;;;;;;;;;;;11.30;99.90;;;;;;5030940;28;19917;-63
2023/03/22 07:12:23;;;;;;;;;;;11.30;99.90;;;;;;5028777;28;19988;-63
2023/03/22 07:14:48;;;;;;;;;;;11.40;99.90;;;;;;5031680;28;19928;-63
2023/03/22 07:17:14;;;;;;;;;;;11.40;99.90;;;;;;5029058;28;19963;-63
2023/03/22 07:19:41;;;;;;;;;;;11.40;99.90;;;;;;5031158;28;19913;-62
2023/03/22 07:22:07;;;;;;;;;;;11.40;99.90;;;;;;5031643;28;20012;-64
2023/03/22 07:24:32;;;;;;;;;;;11.50;99.90;;;;;;5032264;28;20551;-64
2023/03/22 07:26:58;;;;;;;;;;;11.50;99.90;;;;;;5026202;28;19916;-64
2023/03/22 07:29:23;;;;;;;;;;;11.60;99.90;;;;;;5032570;28;19924;-64
2023/03/22 07:31:49;;;;;;;;;;;11.70;99.90;;;;;;5028799;28;20275;-64
2023/03/22 07:34:15;;;;;;;;;;;11.80;99.90;;;;;;5032804;28;20395;-64
2023/03/22 07:36:40;;;;;;;;;;;12.00;99.90;;;;;;5030572;28;20450;-63
2023/03/22 07:39:06;;;;;;;;;;;12.10;99.90;;;;;;5030663;28;20004;-63
2023/03/22 07:41:31;;;;;;;;;;;12.10;99.90;;;;;;5029978;28;19913;-63
2023/03/22 07:43:57;;;;;;;;;;;12.20;99.90;;;;;;5029591;28;19963;-64
2023/03/22 07:46:22;;;;;;;;;;;12.30;99.90;;;;;;5031443;28;19917;-65
2023/03/22 07:48:48;;;;;;;;;;;12.30;99.90;;;;;;5031216;28;19923;-64
2023/03/22 07:51:14;;;;;;;;;;;12.30;99.90;;;;;;5033004;28;19920;-62
2023/03/22 07:53:39;;;;;;;;;;;12.40;99.90;;;;;;5029310;28;20302;-63
2023/03/22 07:56:05;;;;;;;;;;;12.40;99.90;;;;;;5026403;28;20011;-63
2023/03/22 07:58:30;;;;;;;;;;;12.40;99.90;;;;;;5030486;28;19956;-63
2023/03/22 08:00:57;;;;;;;;;;;12.40;99.90;;;;;;5029340;28;19921;-64
2023/03/22 08:03:23;;;;;;;;;;;12.40;99.90;;;;;;5028013;28;19967;-63
2023/03/22 08:05:48;;;;;;;;;;;12.50;99.90;;;;;;5028200;28;19913;-64
2023/03/22 08:08:14;;;;;;;;;;;12.50;99.90;;;;;;5032198;28;19970;-63
2023/03/22 08:10:39;;;;;;;;;;;12.60;99.90;;;;;;5031634;28;20047;-63
2023/03/22 08:13:05;;;;;;;;;;;12.60;99.90;;;;;;5030919;28;20470;-63
2023/03/22 08:15:30;;;;;;;;;;;12.80;99.90;;;;;;5028371;28;19921;-63
2023/03/22 08:17:59;;;;;;;;;;;12.90;99.90;;;;;;5031771;28;19921;-63
2023/03/22 08:20:26;;;;;;;;;;;13.00;99.90;;;;;;5026824;28;19929;-63
2023/03/22 08:22:52;;;;;;;;;;;13.10;99.90;;;;;;5029822;28;20379;-63
2023/03/22 08:25:17;;;;;;;;;;;13.30;99.90;;;;;;5030666;28;19913;-63
2023/03/22 08:27:43;;;;;;;;;;;13.40;99.90;;;;;;5028634;28;19913;-63
2023/03/22 08:30:08;;;;;;;;;;;13.50;99.90;;;;;;5028285;28;19928;-63
2023/03/22 08:32:34;;;;;;;;;;;13.60;99.90;;;;;;5027439;28;19917;-64
2023/03/22 08:34:59;;;;;;;;;;;13.60;99.90;;;;;;5030021;28;20311;-63
2023/03/22 08:37:25;;;;;;;;;;;13.60;99.90;;;;;;5028269;28;19919;-63
2023/03/22 08:39:51;;;;;;;;;;;13.40;99.90;;;;;;5025560;28;20009;-63
2023/03/22 08:42:16;;;;;;;;;;;13.40;99.90;;;;;;5030660;28;19917;-63
2023/03/22 08:44:42;;;;;;;;;;;13.40;99.90;;;;;;5027072;28;20003;-63
2023/03/22 08:47:07;;;;;;;;;;;13.40;99.90;;;;;;5031500;28;19920;-63
2023/03/22 08:49:32;;;;;;;;;;;13.50;99.90;;;;;;5030561;28;20444;-64
2023/03/22 08:51:58;;;;;;;;;;;13.60;99.90;;;;;;5030829;28;19917;-63
2023/03/22 08:54:26;;;;;;;;;;;13.70;99.90;;;;;;5029901;28;19914;-63
2023/03/22 08:56:51;;;;;;;;;;;13.80;99.90;;;;;;5031530;28;19963;-63
2023/03/22 08:59:17;;;;;;;;;;;13.90;99.90;;;;;;5032370;28;20302;-64
2023/03/22 09:01:42;;;;;;;;;;;13.90;99.90;;;;;;5029229;28;19920;-62
2023/03/22 09:04:08;;;;;;;;;;;13.90;99.90;;;;;;5030106;28;20402;-63
2023/03/22 09:06:33;;;;;;;;;;;13.80;99.90;;;;;;5029081;28;20303;-63
2023/03/22 09:08:59;;;;;;;;;;;13.80;99.90;;;;;;5030479;28;20375;-63
2023/03/22 09:11:24;;;;;;;;;;;13.90;99.90;;;;;;5031088;28;20276;-62
2023/03/22 09:13:50;;;;;;;;;;;13.70;99.90;;;;;;5030245;28;19913;-62
2023/03/22 09:16:16;;;;;;;;;;;13.70;99.90;;;;;;5027909;28;19924;-63
2023/03/22 09:18:42;;;;;;;;;;;13.80;99.90;;;;;;5029094;28;19920;-63
2023/03/22 09:21:08;;;;;;;;;;;13.80;99.90;;;;;;5028858;28;19921;-63
2023/03/22 09:23:35;;;;;;;;;;;14.00;99.90;;;;;;5029101;28;19948;-63
2023/03/22 09:26:01;;;;;;;;;;;14.00;99.90;;;;;;5031605;28;19921;-63
2023/03/22 09:28:27;;;;;;;;;;;13.80;99.90;;;;;;5034148;28;19921;-63
2023/03/22 09:30:52;;;;;;;;;;;13.80;99.90;;;;;;5032607;28;19920;-63
2023/03/22 09:33:18;;;;;;;;;;;13.90;99.90;;;;;;5034138;28;19913;-63
2023/03/22 09:35:43;;;;;;;;;;;13.90;99.90;;;;;;5032854;28;19939;-63
2023/03/22 09:38:09;;;;;;;;;;;13.90;99.90;;;;;;5033500;28;19936;-63
2023/03/22 09:40:36;;;;;;;;;;;14.00;99.90;;;;;;5030655;28;19920;-63
2023/03/22 09:43:04;;;;;;;;;;;14.20;99.90;;;;;;5032733;28;19913;-63
2023/03/22 09:45:45;;;;;;;;;;;14.30;99.90;;;;;;5029188;28;19925;-62
2023/03/22 09:48:17;;;;;;;;;;;14.50;99.90;;;;;;5031595;28;19955;-62
2023/03/22 09:50:45;;;;;;;;;;;14.40;99.90;;;;;;5029082;28;19913;-59
2023/03/22 09:53:12;;;;;;;;;;;14.40;99.90;;;;;;5030038;28;19923;-62
2023/03/22 09:55:58;;;;;;;;;;;14.30;99.90;;;;;;5028785;28;19925;-62
2023/03/22 09:58:28;;;;;;;;;;;14.40;99.90;;;;;;5029079;28;19914;-63
2023/03/22 10:00:55;;;;;;;;;;;14.30;99.90;;;;;;5029769;28;19924;-63
2023/03/22 10:03:36;;;;;;;;;;;14.30;99.90;;;;;;5030032;28;19909;-63
2023/03/22 10:06:10;;;;;;;;;;;14.40;99.90;;;;;;5026461;28;20377;-63
2023/03/22 10:08:41;;;;;;;;;;;14.40;99.90;;;;;;5030559;28;19917;-63
2023/03/22 10:11:10;;;;;;;;;;;14.40;99.90;;;;;;5030475;28;20024;-64
2023/03/22 10:13:40;;;;;;;;;;;14.20;99.90;;;;;;5024293;28;19929;-64
2023/03/22 10:16:07;;;;;;;;;;;14.20;99.90;;;;;;5024748;28;19924;-64
2023/03/22 10:18:37;;;;;;;;;;;14.30;99.90;;;;;;5029950;28;19967;-62
2023/03/22 10:21:03;;;;;;;;;;;14.30;99.90;;;;;;5029255;28;19913;-62
2023/03/22 10:23:44;;;;;;;;;;;14.40;99.90;;;;;;5030223;28;19963;-63
2023/03/22 10:26:16;;;;;;;;;;;14.40;99.90;;;;;;5025450;28;19945;-63
2023/03/22 10:28:43;;;;;;;;;;;14.40;99.90;;;;;;5029520;28;20415;-64
2023/03/22 10:31:13;;;;;;;;;;;14.40;99.90;;;;;;5026520;28;21849;-64
2023/03/22 10:33:49;;;;;;;;;;;14.60;99.90;;;;;;5028259;28;19928;-64
2023/03/22 10:36:15;;;;;;;;;;;14.60;99.90;;;;;;5029765;28;19917;-64
2023/03/22 10:38:44;;;;;;;;;;;15.00;99.90;;;;;;5029140;28;20658;-64
2023/03/22 10:41:12;;;;;;;;;;;15.10;99.90;;;;;;5031602;28;20437;-64
2023/03/22 10:43:38;;;;;;;;;;;15.10;99.90;;;;;;5031713;28;20004;-62
2023/03/22 10:46:06;;;;;;;;;;;15.00;99.90;;;;;;5027047;28;19921;-64
2023/03/22 10:48:34;;;;;;;;;;;14.90;99.90;;;;;;5029456;28;19967;-64
2023/03/22 10:51:00;;;;;;;;;;;14.70;99.90;;;;;;5027317;28;19933;-65
2023/03/22 10:53:29;;;;;;;;;;;14.70;99.90;;;;;;5029511;28;19987;-64
2023/03/22 10:55:55;;;;;;;;;;;14.50;99.90;;;;;;5028818;28;19917;-64
2023/03/22 10:58:21;;;;;;;;;;;14.40;99.90;;;;;;5030199;28;19926;-64
2023/03/22 11:00:47;;;;;;;;;;;14.50;99.90;;;;;;5027630;28;19925;-65
2023/03/22 11:03:25;;;;;;;;;;;14.50;99.90;;;;;;5029288;28;19909;-63
2023/03/22 11:05:58;;;;;;;;;;;14.60;99.90;;;;;;5027203;28;19928;-63
2023/03/22 11:08:24;;;;;;;;;;;14.60;99.90;;;;;;5027478;28;19917;-63
2023/03/22 11:10:51;;;;;;;;;;;14.60;99.90;;;;;;5028673;28;19917;-62
2023/03/22 11:13:20;;;;;;;;;;;14.50;99.90;;;;;;5028885;28;20374;-62
2023/03/22 11:15:51;;;;;;;;;;;14.40;99.90;;;;;;5031207;28;19914;-63
2023/03/22 11:18:18;;;;;;;;;;;14.50;99.90;;;;;;5026621;28;19923;-64
2023/03/22 11:21:07;;;;;;;;;;;14.20;99.90;;;;;;5029254;28;19967;-64
2023/03/22 11:23:33;;;;;;;;;;;14.20;99.90;;;;;;5029869;28;20490;-64
2023/03/22 11:26:04;;;;;;;;;;;14.00;99.90;;;;;;5028028;28;20429;-63
2023/03/22 11:28:34;;;;;;;;;;;14.10;99.90;;;;;;5028052;28;19932;-63
2023/03/22 11:31:00;;;;;;;;;;;14.10;99.90;;;;;;5028681;28;20275;-63
2023/03/22 11:33:25;;;;;;;;;;;14.20;99.90;;;;;;5026697;28;20081;-63
2023/03/22 11:35:55;;;;;;;;;;;14.30;99.90;;;;;;5027579;28;19917;-62
2023/03/22 11:38:38;;;;;;;;;;;14.20;99.90;;;;;;5029092;28;19913;-62
2023/03/22 11:41:06;;;;;;;;;;;14.20;99.90;;;;;;5025487;28;20399;-63
2023/03/22 11:43:31;;;;;;;;;;;14.20;99.90;;;;;;5024770;28;19917;-63
2023/03/22 11:45:57;;;;;;;;;;;14.10;99.90;;;;;;5027600;28;19932;-65
2023/03/22 11:48:24;;;;;;;;;;;14.10;99.90;;;;;;5027018;28;19921;-63
2023/03/22 11:50:52;;;;;;;;;;;14.20;99.90;;;;;;5027293;28;20003;-63
2023/03/22 11:53:19;;;;;;;;;;;14.20;99.90;;;;;;5028889;28;19909;-63
2023/03/22 11:55:46;;;;;;;;;;;14.10;99.90;;;;;;5027928;28;19952;-65
2023/03/22 11:58:26;;;;;;;;;;;14.10;99.90;;;;;;5027749;28;19917;-64
2023/03/22 12:00:58;;;;;;;;;;;14.10;99.90;;;;;;5028889;28;20367;-64
2023/03/22 12:03:26;;;;;;;;;;;14.10;99.90;;;;;;5023925;28;19917;-63
2023/03/22 12:05:52;;;;;;;;;;;14.10;99.90;;;;;;5027314;28;19913;-63
2023/03/22 12:08:17;;;;;;;;;;;14.00;99.90;;;;;;5026910;28;19917;-63
2023/03/22 12:10:46;;;;;;;;;;;13.90;99.90;;;;;;5026824;28;19913;-64
2023/03/22 12:13:17;;;;;;;;;;;13.90;99.90;;;;;;5028560;28;19920;-64
2023/03/22 12:15:47;;;;;;;;;;;13.90;99.90;;;;;;5027430;28;20429;-64
2023/03/22 12:18:28;;;;;;;;;;;13.90;99.90;;;;;;5027964;28;20352;-63
2023/03/22 12:20:57;;;;;;;;;;;14.00;99.90;;;;;;5026287;28;19917;-64
2023/03/22 12:23:24;;;;;;;;;;;13.90;99.90;;;;;;5027155;28;20449;-63
2023/03/22 12:25:56;;;;;;;;;;;13.80;99.90;;;;;;5028486;28;19913;-55
2023/03/22 12:28:45;;;;;;;;;;;13.90;99.90;;;;;;5027184;28;20065;-57
2023/03/22 12:31:15;;;;;;;;;;;13.90;99.90;;;;;;5012825;28;19935;-59
2023/03/22 12:33:41;;;;;;;;;;;13.90;99.90;;;;;;5026826;28;20038;-58
2023/03/22 12:36:06;;;;;;;;;;;13.80;99.90;;;;;;5025117;28;20742;-57
2023/03/22 12:38:40;;;;;;;;;;;13.90;99.90;;;;;;5025903;28;19920;-58
2023/03/22 12:41:11;;;;;;;;;;;13.90;99.90;;;;;;5025210;28;19913;-58
2023/03/22 12:43:42;;;;;;;;;;;13.90;99.90;;;;;;5022811;28;20368;-59
2023/03/22 12:46:14;;;;;;;;;;;13.90;99.90;;;;;;5021796;28;19945;-58
2023/03/22 12:48:46;;;;;;;;;;;13.90;99.90;;;;;;5017700;28;19922;-59
2023/03/22 12:51:12;;;;;;;;;;;13.90;99.90;;;;;;5026792;28;19927;-59
2023/03/22 12:53:46;;;;;;;;;;;13.90;99.90;;;;;;5027792;28;19995;-59
2023/03/22 12:56:13;;;;;;;;;;;13.90;99.90;;;;;;5029219;28;20307;-59
2023/03/22 12:58:39;;;;;;;;;;;13.80;99.90;;;;;;5028282;28;19926;-58
2023/03/22 13:01:19;;;;;;;;;;;13.80;99.90;;;;;;5031545;28;19953;-58
2023/03/22 13:03:46;;;;;;;;;;;13.80;99.90;;;;;;5028666;28;19913;-57
2023/03/22 13:06:31;;;;;;;;;;;13.90;99.90;;;;;;5029576;28;19921;-59
2023/03/22 13:09:02;;;;;;;;;;;13.80;99.90;;;;;;5041449;28;19983;-59
2023/03/22 13:11:28;;;;;;;;;;;13.90;99.90;;;;;;5028215;28;20294;-58
2023/03/22 13:13:53;;;;;;;;;;;13.90;99.90;;;;;;5027242;28;19917;-59
2023/03/22 13:16:21;;;;;;;;;;;13.90;99.90;;;;;;5029091;28;19913;-59
2023/03/22 13:18:46;;;;;;;;;;;13.80;99.90;;;;;;5031706;28;20551;-59
2023/03/22 13:21:17;;;;;;;;;;;13.80;99.90;;;;;;5032310;28;20006;-58
2023/03/22 13:24:03;;;;;;;;;;;13.80;99.90;;;;;;5029748;28;19920;-59
2023/03/22 13:26:34;;;;;;;;;;;13.90;99.90;;;;;;5030920;28;20259;-59
2023/03/22 13:29:06;;;;;;;;;;;14.00;99.90;;;;;;5029863;28;20020;-58
2023/03/22 13:31:40;;;;;;;;;;;14.00;99.90;;;;;;5031869;28;19913;-58
2023/03/22 13:34:12;;;;;;;;;;;14.10;99.90;;;;;;5031187;28;19917;-58
2023/03/22 13:36:38;;;;;;;;;;;14.20;99.90;;;;;;5036454;28;19913;-57
2023/03/22 13:39:07;;;;;;;;;;;14.20;99.90;;;;;;5028975;28;19921;-56
2023/03/22 13:41:33;;;;;;;;;;;14.30;99.90;;;;;;5049832;28;19909;-57
2023/03/22 13:44:00;;;;;;;;;;;14.20;99.90;;;;;;5026268;28;20123;-57
2023/03/22 13:46:26;;;;;;;;;;;14.20;99.90;;;;;;5027853;28;19913;-58
2023/03/22 13:49:12;;;;;;;;;;;14.20;99.90;;;;;;5031190;28;19940;-59
2023/03/22 13:51:38;;;;;;;;;;;14.20;99.90;;;;;;5031220;28;19913;-60
2023/03/22 13:54:12;;;;;;;;;;;14.20;99.90;;;;;;5029001;28;19920;-60
2023/03/22 13:56:38;;;;;;;;;;;14.20;99.90;;;;;;5030210;28;19956;-59
2023/03/22 13:59:03;;;;;;;;;;;14.30;99.90;;;;;;5029828;28;19913;-59
2023/03/22 14:01:46;;;;;;;;;;;14.30;99.90;;;;;;5029693;28;19928;-57
2023/03/22 14:04:41;;;;;;;;;;;14.30;99.90;;;;;;5027788;28;19914;-58
2023/03/22 14:07:10;;;;;;;;;;;14.30;99.90;;;;;;4979180;28;19918;-59
2023/03/22 14:09:44;;;;;;;;;;;14.30;99.90;;;;;;5031435;28;20302;-60
2023/03/22 14:12:15;;;;;;;;;;;14.30;99.90;;;;;;5031820;28;19921;-57
2023/03/22 14:14:42;;;;;;;;;;;14.20;99.90;;;;;;5026247;28;20051;-59
2023/03/22 14:17:10;;;;;;;;;;;14.20;99.90;;;;;;5029352;28;20004;-59
2023/03/22 14:19:36;;;;;;;;;;;14.20;99.90;;;;;;5029045;28;19944;-57
2023/03/22 14:22:04;;;;;;;;;;;14.20;99.90;;;;;;5027561;28;20367;-55
2023/03/22 14:24:33;;;;;;;;;;;14.20;99.90;;;;;;5030007;28;19914;-56